Time;durP1;ratioP1;P1;durP2;ratioP2;P2;SDS_P1;SDS_P2;PMS_P1;PMS_P2;Temp;Humidity;BMP_temperature;BMP_pressure;BME280_temperature;BME280_humidity;BME280_pressure;Samples;Min_cycle;Max_cycle;Signal;HPM_P1;HPM_P2
2021/07/19 00:02:25;;;;;;;3.07;2.77;;;;;;;18.93;100.00;98465.31;5093085;28;20271;-65
2021/07/19 00:04:52;;;;;;;4.03;3.23;;;;;;;18.92;100.00;98455.59;5093054;28;20211;-65
2021/07/19 00:07:18;;;;;;;3.60;3.30;;;;;;;18.87;100.00;98463.22;5093143;28;20210;-64
2021/07/19 00:09:45;;;;;;;3.37;3.07;;;;;;;18.89;100.00;98463.91;5093117;28;20203;-64
2021/07/19 00:12:14;;;;;;;3.27;2.97;;;;;;;18.87;100.00;98454.31;5092833;28;20221;-65
2021/07/19 00:14:41;;;;;;;3.30;3.00;;;;;;;18.85;100.00;98457.19;5093084;28;20232;-64
2021/07/19 00:17:09;;;;;;;3.30;3.00;;;;;;;18.82;100.00;98452.09;5094021;28;20226;-65
2021/07/19 00:19:36;;;;;;;3.53;3.20;;;;;;;18.80;100.00;98464.81;5095372;28;20217;-64
2021/07/19 00:22:03;;;;;;;3.00;2.63;;;;;;;18.77;100.00;98462.41;5096672;28;20211;-64
2021/07/19 00:24:30;;;;;;;3.37;3.07;;;;;;;18.72;100.00;98464.69;5077671;28;20655;-64
2021/07/19 00:26:56;;;;;;;3.27;2.93;;;;;;;18.74;100.00;98465.41;5076290;28;20214;-64
2021/07/19 00:29:23;;;;;;;3.73;3.40;;;;;;;18.71;100.00;98463.00;5076221;28;20219;-64
2021/07/19 00:31:49;;;;;;;4.17;2.80;;;;;;;18.67;100.00;98469.69;5076144;28;20211;-64
2021/07/19 00:34:17;;;;;;;3.80;3.13;;;;;;;18.59;100.00;98474.06;5076157;28;20222;-65
2021/07/19 00:36:43;;;;;;;3.10;2.80;;;;;;;18.52;100.00;98465.78;5075853;28;20235;-64
2021/07/19 00:39:11;;;;;;;3.07;2.77;;;;;;;18.48;100.00;98464.38;5076366;28;20230;-64
2021/07/19 00:41:39;;;;;;;3.10;2.80;;;;;;;18.44;100.00;98468.34;5076213;28;20806;-64
2021/07/19 00:44:06;;;;;;;3.37;2.87;;;;;;;18.41;100.00;98462.47;5075941;28;20215;-64
2021/07/19 00:46:32;;;;;;;3.97;2.93;;;;;;;18.42;100.00;98464.13;5074485;28;20224;-64
2021/07/19 00:49:00;;;;;;;4.93;2.90;;;;;;;18.38;100.00;98466.25;5075760;28;20208;-65
2021/07/19 00:51:28;;;;;;;3.23;2.87;;;;;;;18.37;100.00;98453.03;5076140;28;20209;-64
2021/07/19 00:53:54;;;;;;;3.10;2.80;;;;;;;18.35;100.00;98453.16;5075900;28;20217;-65
2021/07/19 00:56:22;;;;;;;3.20;2.90;;;;;;;18.32;100.00;98453.47;5075521;28;20231;-64
2021/07/19 00:58:50;;;;;;;3.13;2.80;;;;;;;18.26;100.00;98451.34;5075429;28;20215;-64
2021/07/19 01:01:18;;;;;;;4.27;3.33;;;;;;;18.26;100.00;98443.31;5075952;28;20682;-65
2021/07/19 01:03:46;;;;;;;3.13;2.83;;;;;;;18.23;100.00;98440.91;5075856;28;20612;-64
2021/07/19 01:06:13;;;;;;;3.87;2.80;;;;;;;18.22;100.00;98441.91;5075767;28;20217;-64
2021/07/19 01:08:42;;;;;;;3.00;2.70;;;;;;;18.19;100.00;98441.38;5075652;28;20576;-64
2021/07/19 01:11:09;;;;;;;2.90;2.70;;;;;;;18.17;100.00;98440.66;5074027;28;20230;-64
2021/07/19 01:13:36;;;;;;;2.83;2.60;;;;;;;18.14;100.00;98439.13;5075649;28;20209;-64
2021/07/19 01:16:02;;;;;;;4.13;2.97;;;;;;;18.12;100.00;98445.63;5075578;28;20214;-64
2021/07/19 01:18:29;;;;;;;3.73;2.83;;;;;;;18.11;100.00;98439.41;5075509;28;20251;-64
2021/07/19 01:21:15;;;;;;;3.30;2.80;;;;;;;18.06;100.00;98441.69;5075318;28;20208;-64
2021/07/19 01:24:09;;;;;;;4.83;3.20;;;;;;;18.02;100.00;98440.28;5087594;28;20206;-64
2021/07/19 01:26:53;;;;;;;7.27;3.30;;;;;;;17.97;100.00;98442.53;5095437;28;20211;-64
2021/07/19 01:29:22;;;;;;;6.87;3.73;;;;;;;17.98;100.00;98449.56;5094237;28;20202;-64
2021/07/19 01:31:52;;;;;;;6.97;3.53;;;;;;;17.98;100.00;98446.91;5095164;28;20218;-64
2021/07/19 01:34:21;;;;;;;4.13;3.20;;;;;;;18.00;100.00;98450.31;5095174;28;20293;-64
2021/07/19 01:36:50;;;;;;;3.73;3.27;;;;;;;18.00;100.00;98441.41;5093850;28;20230;-65
2021/07/19 01:39:17;;;;;;;3.00;2.70;;;;;;;17.95;100.00;98441.84;5094992;28;20210;-65
2021/07/19 01:41:46;;;;;;;2.90;2.60;;;;;;;17.90;100.00;98446.78;5095314;28;20238;-65
2021/07/19 01:44:14;;;;;;;3.40;2.93;;;;;;;17.83;100.00;98448.34;5094894;28;20692;-64
2021/07/19 01:46:44;;;;;;;3.27;2.97;;;;;;;17.77;100.00;98440.03;5095240;28;20214;-64
2021/07/19 01:49:12;;;;;;;3.10;2.80;;;;;;;17.71;100.00;98437.94;5095235;28;20203;-64
2021/07/19 01:51:39;;;;;;;3.70;3.30;;;;;;;17.65;100.00;98436.69;5095173;28;20207;-64
2021/07/19 01:54:07;;;;;;;3.83;3.33;;;;;;;17.65;100.00;98436.69;5094807;28;20218;-64
2021/07/19 01:56:34;;;;;;;3.27;2.97;;;;;;;17.60;100.00;98446.13;5094931;28;20210;-64
2021/07/19 01:59:02;;;;;;;3.23;2.93;;;;;;;17.62;100.00;98441.50;5095132;28;20260;-64
2021/07/19 02:01:30;;;;;;;3.60;3.00;;;;;;;17.60;100.00;98438.94;5094753;28;20222;-64
2021/07/19 02:03:57;;;;;;;3.73;3.40;;;;;;;17.60;100.00;98446.13;5093405;28;20211;-64
2021/07/19 02:06:26;;;;;;;3.67;3.13;;;;;;;17.57;100.00;98441.06;5094991;28;20233;-64
2021/07/19 02:08:55;;;;;;;3.43;3.13;;;;;;;17.57;100.00;98439.25;5094754;28;20211;-64
2021/07/19 02:11:26;;;;;;;4.73;3.10;;;;;;;17.52;100.00;98432.63;5094498;28;20210;-65
2021/07/19 02:13:53;;;;;;;4.17;3.40;;;;;;;17.53;100.00;98439.66;5094754;28;20203;-65
2021/07/19 02:16:21;;;;;;;4.47;3.40;;;;;;;17.50;100.00;98432.75;5094671;28;20211;-65
2021/07/19 02:18:48;;;;;;;3.67;3.27;;;;;;;17.48;100.00;98437.41;5094578;28;20234;-64
2021/07/19 02:21:19;;;;;;;3.93;3.10;;;;;;;17.48;100.00;98434.75;5094585;28;20207;-65
2021/07/19 02:23:47;;;;;;;4.07;3.17;;;;;;;17.46;100.00;98436.72;5081812;28;20744;-64
2021/07/19 02:26:15;;;;;;;3.50;2.90;;;;;;;17.46;100.00;98442.06;5074122;28;20215;-64
2021/07/19 02:28:43;;;;;;;3.37;3.07;;;;;;;17.48;100.00;98439.22;5073340;28;20203;-64
2021/07/19 02:31:10;;;;;;;3.77;3.00;;;;;;;17.47;100.00;98435.72;5073287;28;20214;-64
2021/07/19 02:33:38;;;;;;;4.03;3.17;;;;;;;17.46;100.00;98435.88;5074182;28;20207;-64
2021/07/19 02:36:07;;;;;;;3.47;3.10;;;;;;;17.45;100.00;98443.06;5073835;28;20215;-64
2021/07/19 02:38:36;;;;;;;3.33;2.83;;;;;;;17.47;100.00;98441.06;5074041;28;20254;-64
2021/07/19 02:41:05;;;;;;;3.33;3.03;;;;;;;17.44;100.00;98440.50;5073446;28;20203;-65
2021/07/19 02:43:32;;;;;;;3.70;3.33;;;;;;;17.41;100.00;98441.63;5073799;28;20216;-65
2021/07/19 02:46:00;;;;;;;3.67;3.37;;;;;;;17.40;100.00;98439.09;5073510;28;20679;-64
2021/07/19 02:48:29;;;;;;;4.67;3.33;;;;;;;17.37;100.00;98437.53;5073809;28;20215;-64
2021/07/19 02:50:59;;;;;;;4.20;3.20;;;;;;;17.40;100.00;98442.63;5073929;28;20666;-64
2021/07/19 02:53:30;;;;;;;3.90;3.07;;;;;;;17.39;100.00;98440.94;5073475;28;20540;-64
2021/07/19 02:55:59;;;;;;;3.67;3.30;;;;;;;17.36;100.00;98437.66;5072155;28;20207;-64
2021/07/19 02:58:26;;;;;;;3.93;3.53;;;;;;;17.33;100.00;98441.47;5073516;28;20257;-64
2021/07/19 03:00:53;;;;;;;4.37;3.17;;;;;;;17.32;100.00;98434.41;5073627;28;20203;-64
2021/07/19 03:03:23;;;;;;;3.63;3.33;;;;;;;17.30;100.00;98441.75;5073612;28;20212;-64
2021/07/19 03:05:54;;;;;;;3.83;2.97;;;;;;;17.27;100.00;98436.69;5073436;28;20211;-65
2021/07/19 03:08:22;;;;;;;3.97;3.37;;;;;;;17.22;100.00;98432.72;5073229;28;20214;-64
2021/07/19 03:10:52;;;;;;;4.10;3.30;;;;;;;17.17;100.00;98441.16;5073444;28;20591;-64
2021/07/19 03:13:25;;;;;;;5.07;3.33;;;;;;;17.12;100.00;98432.72;5073119;28;20215;-64
2021/07/19 03:15:52;;;;;;;4.13;3.37;;;;;;;17.12;100.00;98427.38;5073333;28;20215;-64
2021/07/19 03:18:21;;;;;;;4.50;3.23;;;;;;;17.07;100.00;98432.28;5073269;28;20242;-64
2021/07/19 03:20:48;;;;;;;5.03;3.20;;;;;;;16.99;100.00;98434.81;5072070;28;20208;-64
2021/07/19 03:23:19;;;;;;;3.60;3.20;;;;;;;16.99;100.00;98425.94;5080838;28;20669;-64
2021/07/19 03:25:47;;;;;;;3.10;2.80;;;;;;;16.95;100.00;98430.72;5093432;28;20218;-64
2021/07/19 03:28:17;;;;;;;3.17;2.83;;;;;;;16.87;100.00;98422.56;5093128;28;20207;-64
2021/07/19 03:30:45;;;;;;;5.20;3.43;;;;;;;16.82;100.00;98429.31;5093062;28;20685;-64
2021/07/19 03:33:12;;;;;;;3.97;3.57;;;;;;;16.83;100.00;98431.84;5093277;28;20202;-64
2021/07/19 03:35:39;;;;;;;3.50;3.20;;;;;;;16.79;100.00;98427.78;5093055;28;20215;-64
2021/07/19 03:38:06;;;;;;;3.33;3.03;;;;;;;16.73;100.00;98425.66;5092945;28;20238;-64
2021/07/19 03:40:33;;;;;;;4.83;3.67;;;;;;;16.69;100.00;98429.56;5093223;28;20253;-64
2021/07/19 03:43:01;;;;;;;3.30;3.00;;;;;;;16.65;100.00;98428.13;5092919;28;20203;-64
2021/07/19 03:45:29;;;;;;;5.67;3.70;;;;;;;16.58;100.00;98432.34;5093215;28;20221;-64
2021/07/19 03:47:57;;;;;;;3.60;3.30;;;;;;;16.59;100.00;98439.34;5091580;28;20207;-64
2021/07/19 03:50:24;;;;;;;4.90;3.60;;;;;;;16.64;100.00;98442.47;5093166;28;20308;-64
2021/07/19 03:52:52;;;;;;;4.20;3.47;;;;;;;16.62;100.00;98444.44;5092441;28;20216;-64
2021/07/19 03:55:18;;;;;;;4.10;3.70;;;;;;;16.65;100.00;98441.47;5093105;28;20597;-64
2021/07/19 03:57:45;;;;;;;4.40;3.70;;;;;;;16.66;100.00;98437.00;5093026;28;20248;-64
2021/07/19 04:00:14;;;;;;;4.03;3.63;;;;;;;16.70;100.00;98433.91;5093130;28;20264;-64
2021/07/19 04:02:42;;;;;;;3.90;3.50;;;;;;;16.78;100.00;98434.09;5093003;28;20218;-64
2021/07/19 04:05:14;;;;;;;4.43;3.23;;;;;;;16.76;100.00;98440.53;5093412;28;20297;-64
2021/07/19 04:07:43;;;;;;;3.43;3.13;;;;;;;16.75;100.00;98445.03;5093001;28;20584;-64
2021/07/19 04:10:12;;;;;;;4.10;3.57;;;;;;;16.75;100.00;98442.38;5092857;28;20207;-64
2021/07/19 04:12:41;;;;;;;5.73;3.67;;;;;;;16.78;100.00;98433.25;5092100;28;20592;-64
2021/07/19 04:15:09;;;;;;;4.73;3.37;;;;;;;16.83;100.00;98447.03;5092071;28;20221;-64
2021/07/19 04:17:35;;;;;;;4.67;4.03;;;;;;;16.87;100.00;98449.28;5092948;28;20234;-64
2021/07/19 04:20:04;;;;;;;4.47;3.50;;;;;;;16.92;100.00;98447.03;5092724;28;20704;-64
2021/07/19 04:22:34;;;;;;;6.63;3.83;;;;;;;16.93;100.00;98448.72;5090797;28;20211;-64
2021/07/19 04:25:00;;;;;;;4.57;3.87;;;;;;;16.99;100.00;98448.19;5072621;28;20218;-64
2021/07/19 04:27:27;;;;;;;3.87;3.47;;;;;;;17.01;100.00;98454.22;5072207;28;20212;-64
2021/07/19 04:29:53;;;;;;;5.80;3.63;;;;;;;17.05;100.00;98447.63;5072575;28;20551;-64
2021/07/19 04:32:21;;;;;;;4.00;3.53;;;;;;;17.09;100.00;98445.50;5072525;28;20234;-64
2021/07/19 04:34:49;;;;;;;6.17;4.27;;;;;;;17.16;100.00;98447.50;5072396;28;20215;-64
2021/07/19 04:37:16;;;;;;;4.30;3.30;;;;;;;17.19;100.00;98444.53;5072352;28;20257;-64
2021/07/19 04:39:44;;;;;;;4.10;3.50;;;;;;;17.26;100.00;98451.00;5070746;28;20574;-64
2021/07/19 04:42:11;;;;;;;4.73;3.73;;;;;;;17.29;100.00;98449.88;5072353;28;20215;-64
2021/07/19 04:44:38;;;;;;;4.10;3.73;;;;;;;17.33;100.00;98445.97;5072379;28;20219;-64
2021/07/19 04:47:05;;;;;;;3.83;3.43;;;;;;;17.40;100.00;98447.13;5072480;28;20207;-64
2021/07/19 04:49:31;;;;;;;4.00;3.47;;;;;;;17.46;100.00;98450.09;5072072;28;20666;-64
2021/07/19 04:51:58;;;;;;;3.53;3.23;;;;;;;17.59;100.00;98455.13;5072286;28;20589;-64
2021/07/19 04:54:27;;;;;;;4.20;3.70;;;;;;;17.70;100.00;98450.50;5072339;28;20214;-64
2021/07/19 04:57:00;;;;;;;4.37;3.80;;;;;;;17.83;100.00;98453.69;5072057;28;20222;-64
2021/07/19 04:59:30;;;;;;;4.20;3.57;;;;;;;17.98;100.00;98449.56;5072131;28;20242;-64
2021/07/19 05:01:58;;;;;;;5.80;3.90;;;;;;;18.13;100.00;98447.28;5072338;28;20207;-64
2021/07/19 05:04:26;;;;;;;5.93;4.33;;;;;;;18.36;100.00;98457.50;5073775;28;20212;-64
2021/07/19 05:06:55;;;;;;;4.03;3.63;;;;;;;18.55;100.00;98453.94;5073803;28;20207;-64
2021/07/19 05:09:24;;;;;;;4.50;3.80;;;;;;;18.81;100.00;98457.59;5075682;28;20207;-64
2021/07/19 05:11:52;;;;;;;4.30;3.90;;;;;;;18.91;100.00;98461.09;5075786;28;20214;-64
2021/07/19 05:14:20;;;;;;;4.40;3.83;;;;;;;19.02;99.33;98459.03;5075651;28;20226;-64
2021/07/19 05:16:49;;;;;;;5.07;3.87;;;;;;;19.06;99.17;98456.88;5075368;28;20231;-64
2021/07/19 05:19:17;;;;;;;4.30;3.43;;;;;;;19.31;98.48;98454.34;5075521;28;20231;-64
2021/07/19 05:21:44;;;;;;;4.10;3.67;;;;;;;19.97;92.60;98458.28;5075449;28;20218;-64
2021/07/19 05:24:10;;;;;;;5.17;3.90;;;;;;;20.12;91.05;98451.38;5091160;28;20241;-64
2021/07/19 05:26:38;;;;;;;5.17;3.60;;;;;;;20.03;91.55;98449.63;5095474;28;20222;-64
2021/07/19 05:29:05;;;;;;;5.13;3.77;;;;;;;19.93;91.77;98446.19;5095313;28;20213;-64
2021/07/19 05:31:33;;;;;;;4.50;3.63;;;;;;;19.91;92.29;98452.69;5093854;28;20211;-64
2021/07/19 05:33:59;;;;;;;5.17;3.57;;;;;;;20.62;88.55;98449.66;5095336;28;20270;-64
2021/07/19 05:36:26;;;;;;;4.77;3.47;;;;;;;21.57;81.48;98453.66;5095128;28;20207;-64
2021/07/19 05:38:52;;;;;;;3.83;3.40;;;;;;;22.43;76.72;98447.59;5094871;28;20257;-64
2021/07/19 05:41:19;;;;;;;4.57;3.33;;;;;;;23.05;72.46;98452.06;5095366;28;20218;-64
2021/07/19 05:43:45;;;;;;;5.00;3.60;;;;;;;23.47;69.81;98452.53;5095387;28;20203;-65
2021/07/19 05:46:12;;;;;;;4.47;3.50;;;;;;;23.87;68.22;98449.56;5095030;28;20216;-65
2021/07/19 05:48:40;;;;;;;5.07;3.67;;;;;;;24.08;66.93;98449.69;5095306;28;20213;-64
2021/07/19 05:51:06;;;;;;;5.80;3.40;;;;;;;24.33;65.37;98450.31;5095243;28;20217;-65
2021/07/19 05:53:33;;;;;;;6.00;3.60;;;;;;;24.50;64.56;98447.25;5095168;28;20210;-64
2021/07/19 05:56:00;;;;;;;3.97;3.30;;;;;;;24.79;63.79;98444.59;5095123;28;20233;-65
2021/07/19 05:58:26;;;;;;;3.50;3.13;;;;;;;25.16;61.91;98446.28;5093034;28;20234;-64
2021/07/19 06:00:52;;;;;;;3.10;2.80;;;;;;;25.35;61.98;98440.34;5094753;28;20217;-64
2021/07/19 06:03:20;;;;;;;4.33;2.97;;;;;;;25.78;60.88;98442.88;5094962;28;20226;-66
2021/07/19 06:05:48;;;;;;;4.80;3.37;;;;;;;26.19;59.81;98443.03;5094728;28;20215;-65
2021/07/19 06:08:14;;;;;;;4.30;3.10;;;;;;;26.56;58.64;98449.00;5094740;28;20210;-64
2021/07/19 06:10:41;;;;;;;4.90;2.87;;;;;;;27.02;58.14;98444.69;5094365;28;20677;-65
2021/07/19 06:13:07;;;;;;;3.40;3.10;;;;;;;27.38;56.30;98452.56;5094555;28;20571;-66
2021/07/19 06:15:34;;;;;;;3.47;3.17;;;;;;;27.58;57.05;98459.72;5094194;28;20211;-66
2021/07/19 06:18:01;;;;;;;4.00;3.60;;;;;;;27.76;55.71;98455.38;5094615;28;20211;-65
2021/07/19 06:20:29;;;;;;;3.27;2.97;;;;;;;28.09;55.42;98447.28;5094483;28;20203;-64
2021/07/19 06:23:00;;;;;;;3.53;3.23;;;;;;;28.43;53.72;98447.13;5087426;28;20208;-64
2021/07/19 06:25:28;;;;;;;4.10;3.13;;;;;;;28.80;53.49;98452.69;5074400;28;20218;-65
2021/07/19 06:27:55;;;;;;;3.43;3.00;;;;;;;29.02;52.11;98456.00;5074088;28;20207;-65
2021/07/19 06:30:21;;;;;;;4.00;3.57;;;;;;;28.53;51.69;98453.78;5074186;28;20215;-65
2021/07/19 06:32:48;;;;;;;4.87;3.30;;;;;;;28.35;52.79;98450.00;5074043;28;20212;-65
2021/07/19 06:35:15;;;;;;;3.70;3.40;;;;;;;28.34;52.80;98448.31;5073812;28;20214;-65
2021/07/19 06:37:41;;;;;;;3.30;3.00;;;;;;;28.09;52.55;98458.16;5073914;28;20235;-65
2021/07/19 06:40:10;;;;;;;5.50;3.40;;;;;;;28.22;52.83;98450.00;5073531;28;20702;-65
2021/07/19 06:42:37;;;;;;;3.83;3.43;;;;;;;28.29;53.02;98448.13;5073603;28;20212;-65
2021/07/19 06:45:05;;;;;;;4.17;3.77;;;;;;;27.94;51.96;98454.81;5073932;28;20204;-65
2021/07/19 06:47:31;;;;;;;4.07;3.67;;;;;;;27.72;52.23;98450.56;5073535;28;20215;-65
2021/07/19 06:49:58;;;;;;;4.40;3.30;;;;;;;27.88;52.84;98442.88;5072218;28;20215;-65
2021/07/19 06:52:25;;;;;;;3.70;3.30;;;;;;;27.74;54.41;98445.75;5073740;28;20593;-65
2021/07/19 06:54:51;;;;;;;4.10;3.30;;;;;;;27.54;53.48;98448.44;5073461;28;20562;-64
2021/07/19 06:57:20;;;;;;;3.77;3.20;;;;;;;27.67;54.22;98444.91;5073588;28;20234;-65
2021/07/19 06:59:46;;;;;;;3.90;3.17;;;;;;;27.77;53.97;98439.94;5073125;28;20235;-65
2021/07/19 07:02:13;;;;;;;3.97;3.57;;;;;;;27.74;54.02;98435.72;5073171;28;20211;-65
2021/07/19 07:04:41;;;;;;;3.30;3.00;;;;;;;27.75;54.54;98434.69;5073355;28;20219;-65
2021/07/19 07:07:08;;;;;;;3.70;3.10;;;;;;;27.30;56.10;98437.28;5073145;28;20678;-65
2021/07/19 07:09:35;;;;;;;4.33;3.30;;;;;;;26.32;59.81;98441.28;5073528;28;20217;-64
2021/07/19 07:12:01;;;;;;;4.10;3.43;;;;;;;25.34;62.10;98433.22;5073338;28;20218;-64
2021/07/19 07:14:29;;;;;;;4.73;3.27;;;;;;;24.68;65.02;98442.34;5073166;28;20222;-64
2021/07/19 07:16:56;;;;;;;4.43;3.63;;;;;;;24.27;67.67;98432.16;5071344;28;20219;-64
2021/07/19 07:19:22;;;;;;;3.67;3.37;;;;;;;23.86;69.30;98426.25;5073367;28;20262;-65
2021/07/19 07:21:49;;;;;;;4.23;3.50;;;;;;;23.64;70.13;98428.97;5073293;28;20211;-65
2021/07/19 07:24:15;;;;;;;3.97;3.57;;;;;;;23.52;70.96;98436.63;5089259;28;20207;-64
2021/07/19 07:26:42;;;;;;;3.97;3.57;;;;;;;23.49;71.14;98428.91;5092409;28;20222;-64
2021/07/19 07:29:08;;;;;;;5.30;3.67;;;;;;;23.32;70.40;98432.75;5093144;28;20215;-65
2021/07/19 07:31:36;;;;;;;4.60;3.60;;;;;;;23.19;72.21;98435.19;5093027;28;20211;-65
2021/07/19 07:34:03;;;;;;;5.23;3.60;;;;;;;23.23;71.50;98433.78;5090489;28;20203;-64
2021/07/19 07:36:32;;;;;;;4.00;3.43;;;;;;;23.24;71.19;98429.25;5091953;28;20218;-65
2021/07/19 07:38:58;;;;;;;8.67;3.67;;;;;;;23.13;70.94;98433.16;5092105;28;20642;-65
2021/07/19 07:41:25;;;;;;;4.00;3.60;;;;;;;23.20;71.75;98430.59;5090226;28;20211;-65
2021/07/19 07:43:51;;;;;;;4.53;2.97;;;;;;;23.24;71.05;98427.41;5090761;28;20210;-64
2021/07/19 07:46:18;;;;;;;4.40;4.00;;;;;;;23.26;72.50;98429.91;5091606;28;20207;-64
2021/07/19 07:48:46;;;;;;;4.07;3.40;;;;;;;23.35;72.01;98424.28;5091646;28;20199;-65
2021/07/19 07:51:12;;;;;;;4.40;3.67;;;;;;;23.30;71.79;98426.69;5092310;28;20217;-65
2021/07/19 07:53:39;;;;;;;5.03;3.70;;;;;;;23.42;72.54;98416.31;5092254;28;20244;-64
2021/07/19 07:56:06;;;;;;;5.10;3.40;;;;;;;23.44;72.08;98420.53;5092456;28;20203;-65
2021/07/19 07:58:32;;;;;;;3.73;3.43;;;;;;;23.55;70.57;98419.25;5092353;28;20214;-65
2021/07/19 08:00:59;;;;;;;4.27;3.30;;;;;;;23.66;70.88;98427.75;5092388;28;20218;-65
2021/07/19 08:03:25;;;;;;;3.97;3.40;;;;;;;23.75;69.91;98432.09;5092341;28;20207;-65
2021/07/19 08:05:53;;;;;;;5.10;3.67;;;;;;;23.61;69.63;98424.78;5092060;28;20215;-65
2021/07/19 08:08:19;;;;;;;4.00;3.37;;;;;;;23.69;69.86;98427.41;5090876;28;20572;-64
2021/07/19 08:10:46;;;;;;;3.63;3.33;;;;;;;23.86;69.67;98426.25;5088910;28;20211;-65
2021/07/19 08:13:13;;;;;;;4.20;3.90;;;;;;;23.91;67.57;98426.59;5089761;28;20678;-64
2021/07/19 08:15:40;;;;;;;4.03;3.60;;;;;;;23.77;69.25;98440.00;5091472;28;20592;-65
2021/07/19 08:18:07;;;;;;;6.00;3.80;;;;;;;23.85;67.48;98421.88;5092319;28;20262;-65
2021/07/19 08:20:33;;;;;;;4.20;3.53;;;;;;;23.99;66.64;98417.56;5092320;28;20226;-66
2021/07/19 08:23:01;;;;;;;5.10;3.60;;;;;;;24.14;67.26;98418.44;5092281;28;20215;-65
2021/07/19 08:25:28;;;;;;;4.30;3.53;;;;;;;24.24;67.61;98411.75;5092349;28;20210;-65
2021/07/19 08:27:55;;;;;;;3.77;3.40;;;;;;;24.35;67.22;98414.00;5089820;28;20206;-65
2021/07/19 08:30:22;;;;;;;4.37;3.97;;;;;;;24.44;66.99;98412.03;5089920;28;20211;-65
2021/07/19 08:32:49;;;;;;;4.00;3.60;;;;;;;24.46;67.18;98408.13;5091003;28;20211;-66
2021/07/19 08:35:15;;;;;;;5.60;3.80;;;;;;;24.62;64.40;98409.84;5089810;28;20206;-65
2021/07/19 08:37:45;;;;;;;4.37;3.47;;;;;;;24.60;65.95;98412.72;5088973;28;20230;-65
2021/07/19 08:40:15;;;;;;;4.10;3.70;;;;;;;24.42;65.72;98404.13;5094578;28;20240;-65
2021/07/19 08:42:42;;;;;;;4.77;3.67;;;;;;;24.55;66.79;98411.56;5095235;28;20206;-65
2021/07/19 08:45:11;;;;;;;4.63;3.77;;;;;;;24.48;65.55;98408.78;5094152;28;20211;-66
2021/07/19 08:47:38;;;;;;;4.90;3.60;;;;;;;24.77;64.60;98408.81;5094916;28;20587;-65
2021/07/19 08:50:07;;;;;;;5.07;3.67;;;;;;;24.80;63.99;98397.59;5094407;28;20674;-66
2021/07/19 08:52:34;;;;;;;3.73;3.30;;;;;;;24.73;64.63;98404.78;5094486;28;20217;-65
2021/07/19 08:55:02;;;;;;;4.53;3.80;;;;;;;24.76;63.38;98407.09;5094953;28;20264;-65
2021/07/19 08:57:30;;;;;;;5.63;3.53;;;;;;;24.72;63.67;98400.41;5094452;28;20210;-65
2021/07/19 08:59:59;;;;;;;6.80;3.73;;;;;;;24.77;62.64;98407.94;5093812;28;20230;-66
2021/07/19 09:02:25;;;;;;;4.73;3.93;;;;;;;24.81;64.56;98403.84;5093303;28;20225;-65
2021/07/19 09:04:52;;;;;;;4.23;3.60;;;;;;;24.96;64.85;98400.09;5094512;28;20206;-66
2021/07/19 09:07:19;;;;;;;4.37;3.60;;;;;;;25.05;63.29;98404.34;5093368;28;20221;-64
2021/07/19 09:09:45;;;;;;;4.07;3.67;;;;;;;24.98;63.99;98399.88;5094525;28;20211;-64
2021/07/19 09:12:12;;;;;;;4.97;3.80;;;;;;;25.09;64.45;98397.53;5094771;28;20215;-64
2021/07/19 09:14:46;;;;;;;4.33;3.73;;;;;;;25.26;64.86;98393.63;5093448;28;20202;-65
2021/07/19 09:17:22;;;;;;;4.60;3.80;;;;;;;25.44;63.05;98398.59;5093915;28;20672;-64
2021/07/19 09:19:49;;;;;;;7.37;3.80;;;;;;;25.52;63.11;98393.88;5094553;28;20234;-65
2021/07/19 09:22:23;;;;;;;5.63;4.00;;;;;;;25.54;61.53;98391.81;5093396;28;20238;-64
2021/07/19 09:24:50;;;;;;;6.03;3.50;;;;;;;25.67;57.54;98391.09;5074342;28;20211;-64
2021/07/19 09:27:19;;;;;;;4.90;3.63;;;;;;;25.53;59.82;98390.13;5072860;28;20207;-64
2021/07/19 09:29:48;;;;;;;4.30;3.70;;;;;;;25.54;60.81;98391.81;5072740;28;20234;-65
2021/07/19 09:32:16;;;;;;;7.40;4.20;;;;;;;25.65;61.61;98385.88;5073812;28;20215;-64
2021/07/19 09:34:42;;;;;;;4.63;4.03;;;;;;;25.74;61.32;98387.44;5073575;28;20339;-64
2021/07/19 09:37:11;;;;;;;7.60;3.70;;;;;;;25.91;59.29;98386.13;5072682;28;20245;-64
2021/07/19 09:39:42;;;;;;;4.83;4.23;;;;;;;25.92;58.82;98385.09;5091575;28;20230;-64
2021/07/19 09:42:11;;;;;;;4.73;4.10;;;;;;;25.92;60.32;98385.09;5094238;28;20218;-64
2021/07/19 09:44:38;;;;;;;5.20;4.20;;;;;;;26.12;59.50;98377.97;5093029;28;20674;-65
2021/07/19 09:47:08;;;;;;;3.37;3.03;;;;;;;26.31;57.15;98379.13;5093549;28;20219;-65
2021/07/19 09:49:36;;;;;;;4.82;3.50;;;;;;;26.37;58.42;98376.47;5093018;28;20252;-64
2021/07/19 09:52:05;;;;;;;4.80;3.67;;;;;;;26.47;56.71;98379.69;5092870;28;20215;-64
2021/07/19 09:54:37;;;;;;;4.57;3.40;;;;;;;26.53;54.66;98373.47;5092469;28;20218;-64
2021/07/19 09:57:05;;;;;;;4.43;3.60;;;;;;;26.61;54.42;98376.03;5094261;28;20223;-64
2021/07/19 09:59:33;;;;;;;3.80;3.43;;;;;;;26.63;53.07;98376.66;5094349;28;20230;-64
2021/07/19 10:01:59;;;;;;;4.87;3.67;;;;;;;26.77;53.13;98375.66;5094172;28;20739;-64
2021/07/19 10:04:27;;;;;;;4.20;3.60;;;;;;;26.92;53.83;98373.66;5094293;28;20214;-64
2021/07/19 10:06:56;;;;;;;4.60;3.08;;;;;;;26.82;53.84;98373.19;5093977;28;20221;-64
2021/07/19 10:09:22;;;;;;;5.22;3.40;;;;;;;26.76;52.66;98373.19;5094187;28;20222;-66
2021/07/19 10:11:51;;;;;;;4.10;3.33;;;;;;;26.90;52.96;98370.31;5094119;28;20215;-66
2021/07/19 10:14:26;;;;;;;4.03;3.33;;;;;;;26.77;54.29;98359.41;5094162;28;20627;-66
2021/07/19 10:16:53;;;;;;;5.93;3.70;;;;;;;26.62;53.82;98361.44;5093817;28;20214;-66
2021/07/19 10:19:20;;;;;;;4.67;3.10;;;;;;;26.33;54.05;98364.34;5093957;28;20230;-66
2021/07/19 10:21:48;;;;;;;3.47;3.17;;;;;;;26.17;54.97;98355.69;5092481;28;20207;-65
2021/07/19 10:24:15;;;;;;;3.63;2.60;;;;;;;26.28;49.68;98357.88;5094029;28;20199;-67
2021/07/19 10:26:41;;;;;;;3.93;2.73;;;;;;;26.40;52.81;98350.84;5094030;28;20260;-65
2021/07/19 10:29:09;;;;;;;3.92;3.20;;;;;;;26.74;51.82;98354.38;5093723;28;20214;-65
2021/07/19 10:31:38;;;;;;;3.92;3.17;;;;;;;26.88;52.01;98356.09;5093896;28;20234;-65
2021/07/19 10:34:06;;;;;;;4.27;3.40;;;;;;;26.74;52.52;98348.97;5093765;28;20230;-65
2021/07/19 10:36:36;;;;;;;3.10;2.80;;;;;;;26.55;52.43;98357.84;5093542;28;20237;-65
2021/07/19 10:39:09;;;;;;;4.43;3.30;;;;;;;26.36;53.11;98354.97;5093927;28;20233;-65
2021/07/19 10:41:36;;;;;;;5.70;3.13;;;;;;;26.32;53.67;98354.53;5093659;28;20222;-65
2021/07/19 10:44:05;;;;;;;5.73;3.43;;;;;;;26.44;53.31;98344.81;5093244;28;20717;-65
2021/07/19 10:46:32;;;;;;;4.13;3.27;;;;;;;26.68;52.34;98347.06;5093215;28;20207;-65
2021/07/19 10:49:10;;;;;;;4.28;3.10;;;;;;;26.99;51.53;98347.38;5091569;28;20692;-65
2021/07/19 10:51:43;;;;;;;3.15;2.85;;;;;;;26.86;51.79;98341.06;5093494;28;20223;-65
2021/07/19 10:54:16;;;;;;;3.53;3.22;;;;;;;26.58;53.82;98335.75;5093434;28;20249;-65
2021/07/19 10:56:43;;;;;;;4.43;3.15;;;;;;;26.47;53.95;98336.31;5093186;28;20589;-65
2021/07/19 10:59:10;;;;;;;4.90;3.08;;;;;;;26.58;53.39;98338.44;5093328;28;20206;-65
2021/07/19 11:01:36;;;;;;;4.88;3.20;;;;;;;26.68;53.40;98338.06;5093013;28;20238;-65
2021/07/19 11:04:15;;;;;;;4.22;2.90;;;;;;;26.82;52.99;98332.50;5092918;28;20727;-65
2021/07/19 11:06:47;;;;;;;4.50;2.67;;;;;;;26.96;51.86;98326.09;5092830;28;20256;-65
2021/07/19 11:09:15;;;;;;;3.97;2.40;;;;;;;26.99;47.80;98331.09;5092778;28;20217;-65
2021/07/19 11:11:44;;;;;;;4.53;2.70;;;;;;;26.89;48.34;98332.53;5093047;28;20211;-65
2021/07/19 11:14:17;;;;;;;3.08;2.53;;;;;;;26.85;48.31;98329.41;5091462;28;20215;-65
2021/07/19 11:16:46;;;;;;;3.40;2.90;;;;;;;26.83;49.83;98330.63;5093060;28;20268;-65
2021/07/19 11:19:14;;;;;;;4.15;2.92;;;;;;;26.93;48.64;98326.50;5093234;28;20263;-65
2021/07/19 11:21:41;;;;;;;3.20;2.90;;;;;;;27.02;50.77;98319.88;5092638;28;20731;-64
2021/07/19 11:24:13;;;;;;;4.28;2.65;;;;;;;27.17;49.99;98323.25;5077362;28;20212;-65
2021/07/19 11:26:55;;;;;;;2.97;2.30;;;;;;;27.27;47.87;98319.09;5072788;28;20697;-65
2021/07/19 11:29:32;;;;;;;3.75;2.30;;;;;;;27.45;46.93;98322.03;5072267;28;20692;-65
2021/07/19 11:32:17;;;;;;;3.38;2.63;;;;;;;27.45;49.21;98322.03;5072362;28;20218;-65
2021/07/19 11:34:45;;;;;;;2.83;2.53;;;;;;;27.40;49.09;98312.88;5072301;28;20294;-65